DELVB EDDC-EDDC

Flight info

Callsign DELVB
Flight time 0h 59m
Altitude 7000
Route HDO DCT DRN
Aircraft DA42/L-SBDGRY/S

Departure

Time 2026-05-07 20:21
Airport Dresden Airport (EDDC)

Arrival

Time 2026-05-07 21:20
Airport Dresden Airport (EDDC)
Time Latitude Longitude Altitude Speed Heading
2026-05-07 19:59 51.13038 13.76859 739 ft 0 kts 129°
2026-05-07 20:15 51.13044 13.76849 739 ft 4 kts 295°
2026-05-07 20:15 51.13061 13.76806 738 ft 4 kts 295°
2026-05-07 20:15 51.13060 13.76775 737 ft 1 kts 239°
2026-05-07 20:15 51.13060 13.76774 737 ft 0 kts 239°
2026-05-07 20:16 51.13059 13.76772 737 ft 3 kts 237°
2026-05-07 20:17 51.13009 13.76693 739 ft 13 kts 222°
2026-05-07 20:17 51.12957 13.76621 740 ft 8 kts 219°
2026-05-07 20:17 51.12921 13.76574 740 ft 6 kts 220°
2026-05-07 20:17 51.12898 13.76540 740 ft 3 kts 220°
2026-05-07 20:18 51.12882 13.76520 740 ft 10 kts 223°
2026-05-07 20:18 51.12826 13.76439 742 ft 11 kts 220°
2026-05-07 20:18 51.12753 13.76340 742 ft 16 kts 220°
2026-05-07 20:18 51.12670 13.76225 745 ft 13 kts 220°
2026-05-07 20:19 51.12620 13.76155 747 ft 7 kts 223°
2026-05-07 20:19 51.12592 13.76114 748 ft 5 kts 229°
2026-05-07 20:19 51.12591 13.76031 748 ft 12 kts 309°
2026-05-07 20:19 51.12659 13.75909 748 ft 16 kts 308°
2026-05-07 20:20 51.12717 13.75820 750 ft 8 kts 336°
2026-05-07 20:20 51.12748 13.75856 748 ft 3 kts 38°
2026-05-07 20:20 51.12827 13.75965 746 ft 43 kts 42°
2026-05-07 20:20 51.13185 13.76452 800 ft 82 kts 39°
2026-05-07 20:21 51.13648 13.77100 1042 ft 91 kts 39°
2026-05-07 20:21 51.14124 13.77757 1382 ft 91 kts 37°
2026-05-07 20:21 51.14606 13.78398 1733 ft 91 kts 39°
2026-05-07 20:21 51.15138 13.79074 1985 ft 103 kts 40°
2026-05-07 20:22 51.15636 13.79884 2360 ft 100 kts 44°
2026-05-07 20:22 51.16140 13.80677 2677 ft 104 kts 45°
2026-05-07 20:22 51.16643 13.81495 3020 ft 103 kts 46°
2026-05-07 20:22 51.17134 13.82330 3356 ft 104 kts 47°
2026-05-07 20:23 51.17621 13.83201 3656 ft 106 kts 46°
2026-05-07 20:23 51.18128 13.84053 3995 ft 106 kts 44°
2026-05-07 20:23 51.18644 13.84879 4332 ft 105 kts 42°
2026-05-07 20:23 51.19157 13.85725 4657 ft 106 kts 43°
2026-05-07 20:24 51.19697 13.86535 4992 ft 107 kts 49°
2026-05-07 20:24 51.19810 13.87650 5303 ft 109 kts 106°
2026-05-07 20:24 51.19607 13.88847 5574 ft 114 kts 101°
2026-05-07 20:24 51.19440 13.90088 5886 ft 117 kts 104°
2026-05-07 20:25 51.19217 13.91342 6201 ft 117 kts 106°
2026-05-07 20:25 51.18919 13.92557 6510 ft 119 kts 117°
2026-05-07 20:25 51.18568 13.93746 6831 ft 118 kts 120°
2026-05-07 20:25 51.18074 13.94765 7111 ft 119 kts 141°
2026-05-07 20:26 51.17434 13.95760 7135 ft 143 kts 134°
2026-05-07 20:26 51.16729 13.97026 7034 ft 164 kts 131°
2026-05-07 20:26 51.15970 13.98466 7018 ft 170 kts 132°
2026-05-07 20:26 51.15188 13.99910 7069 ft 173 kts 131°
2026-05-07 20:27 51.14429 14.01363 7087 ft 173 kts 130°
2026-05-07 20:27 51.13692 14.02874 7117 ft 168 kts 126°
2026-05-07 20:27 51.13050 14.04423 7094 ft 170 kts 122°
2026-05-07 20:27 51.12368 14.06006 7011 ft 172 kts 128°
2026-05-07 20:28 51.11631 14.07491 6986 ft 171 kts 133°
2026-05-07 20:28 51.10782 14.08813 6972 ft 169 kts 140°
2026-05-07 20:28 51.09924 14.10004 7083 ft 162 kts 141°
2026-05-07 20:28 51.09064 14.11183 7079 ft 164 kts 141°
2026-05-07 20:29 51.08206 14.12355 7077 ft 165 kts 141°
2026-05-07 20:29 51.07333 14.13548 7074 ft 165 kts 141°
2026-05-07 20:29 51.06457 14.14743 7076 ft 166 kts 141°
2026-05-07 20:29 51.05581 14.15939 7072 ft 166 kts 141°
2026-05-07 20:30 51.04706 14.17134 7069 ft 166 kts 141°
2026-05-07 20:30 51.03829 14.18333 7067 ft 166 kts 141°
2026-05-07 20:30 51.02952 14.19535 7067 ft 167 kts 141°
2026-05-07 20:30 51.02074 14.20737 7063 ft 167 kts 141°
2026-05-07 20:31 51.01367 14.22181 7063 ft 167 kts 115°
2026-05-07 20:31 51.00739 14.23719 7072 ft 167 kts 131°
2026-05-07 20:31 50.99969 14.25099 7068 ft 167 kts 134°
2026-05-07 20:31 50.99188 14.26461 7064 ft 167 kts 134°
2026-05-07 20:32 50.98404 14.27822 7059 ft 167 kts 134°
2026-05-07 20:32 50.97622 14.29187 7059 ft 167 kts 134°
2026-05-07 20:32 50.96846 14.30536 7065 ft 168 kts 134°
2026-05-07 20:32 50.95892 14.31533 7059 ft 166 kts 168°
2026-05-07 20:33 50.94784 14.31335 7062 ft 161 kts 208°
2026-05-07 20:33 50.94055 14.30063 7068 ft 158 kts 250°
2026-05-07 20:33 50.93993 14.28346 7074 ft 157 kts 278°
2026-05-07 20:33 50.94200 14.26631 7066 ft 159 kts 282°
2026-05-07 20:34 50.94433 14.24920 7070 ft 159 kts 282°
2026-05-07 20:34 50.94668 14.23214 7071 ft 158 kts 282°
2026-05-07 20:34 50.94825 14.22082 7069 ft 159 kts 282°
2026-05-07 20:34 50.95062 14.20370 7074 ft 160 kts 282°
2026-05-07 20:35 50.95305 14.18618 7071 ft 165 kts 282°
2026-05-07 20:35 50.95555 14.16824 7074 ft 168 kts 282°
2026-05-07 20:35 50.95809 14.15010 7075 ft 169 kts 282°
2026-05-07 20:35 50.96068 14.13183 7081 ft 170 kts 282°
2026-05-07 20:36 50.96327 14.11345 7079 ft 171 kts 282°
2026-05-07 20:36 50.96588 14.09500 7083 ft 172 kts 282°
2026-05-07 20:36 50.96849 14.07649 7081 ft 172 kts 282°
2026-05-07 20:36 50.97110 14.05804 7084 ft 171 kts 282°
2026-05-07 20:37 50.97372 14.03956 7084 ft 172 kts 282°
2026-05-07 20:37 50.97634 14.02108 7086 ft 172 kts 282°
2026-05-07 20:37 50.97896 14.00265 7090 ft 171 kts 282°
2026-05-07 20:37 50.98160 13.98418 7091 ft 171 kts 282°
2026-05-07 20:38 50.98425 13.96570 7093 ft 171 kts 282°
2026-05-07 20:38 50.98691 13.94723 7092 ft 172 kts 282°
2026-05-07 20:38 50.98949 13.92947 7093 ft 158 kts 282°
2026-05-07 20:38 50.99190 13.91300 7093 ft 149 kts 282°
2026-05-07 20:39 50.99419 13.89733 7092 ft 143 kts 282°
2026-05-07 20:39 50.99640 13.88220 7094 ft 139 kts 282°
2026-05-07 20:39 50.99856 13.86733 7044 ft 139 kts 282°
2026-05-07 20:39 51.00066 13.85217 6923 ft 142 kts 278°
2026-05-07 20:40 51.00212 13.83686 6801 ft 142 kts 277°
2026-05-07 20:40 51.00350 13.82123 6683 ft 143 kts 277°
2026-05-07 20:40 51.00486 13.80555 6558 ft 143 kts 277°
2026-05-07 20:40 51.00621 13.78988 6434 ft 143 kts 277°
2026-05-07 20:41 51.00756 13.77421 6296 ft 143 kts 277°
2026-05-07 20:41 51.00890 13.75861 6167 ft 143 kts 277°
2026-05-07 20:41 51.01022 13.74303 6040 ft 142 kts 277°
2026-05-07 20:41 51.01151 13.72746 5910 ft 142 kts 277°
2026-05-07 20:42 51.01277 13.71195 5779 ft 141 kts 277°
2026-05-07 20:42 51.01400 13.69648 5651 ft 141 kts 277°
2026-05-07 20:42 51.01520 13.68099 5523 ft 141 kts 277°
2026-05-07 20:42 51.01636 13.66566 5395 ft 141 kts 277°
2026-05-07 20:43 51.01751 13.65016 5269 ft 141 kts 277°
2026-05-07 20:43 51.01862 13.63462 5140 ft 142 kts 277°
2026-05-07 20:43 51.01971 13.61910 5019 ft 141 kts 277°
2026-05-07 20:43 51.02064 13.60397 5000 ft 135 kts 274°
2026-05-07 20:44 51.01993 13.58932 4893 ft 137 kts 257°
2026-05-07 20:44 51.01569 13.57546 4720 ft 142 kts 235°
2026-05-07 20:44 51.01062 13.56231 4565 ft 141 kts 255°
2026-05-07 20:44 51.00844 13.54744 4507 ft 135 kts 260°
2026-05-07 20:45 51.00667 13.53264 4362 ft 137 kts 260°
2026-05-07 20:45 51.00488 13.51800 4315 ft 133 kts 261°
2026-05-07 20:45 51.00317 13.50360 4272 ft 129 kts 260°
2026-05-07 20:45 51.00144 13.48969 4252 ft 129 kts 257°
2026-05-07 20:46 50.99923 13.47581 4196 ft 130 kts 257°
2026-05-07 20:46 50.99673 13.46213 4193 ft 126 kts 255°
2026-05-07 20:46 50.99430 13.44886 4239 ft 121 kts 253°
2026-05-07 20:46 50.99160 13.43605 4198 ft 124 kts 255°
2026-05-07 20:47 50.98938 13.42284 4166 ft 125 kts 257°
2026-05-07 20:47 50.98636 13.40991 4120 ft 127 kts 237°
2026-05-07 20:47 50.97950 13.40227 4127 ft 127 kts 196°
2026-05-07 20:47 50.97065 13.40226 4097 ft 130 kts 163°
2026-05-07 20:48 50.96369 13.41065 4116 ft 126 kts 121°
2026-05-07 20:48 50.96164 13.42388 4164 ft 121 kts 94°
2026-05-07 20:48 50.96117 13.43709 4121 ft 124 kts 88°
2026-05-07 20:48 50.96123 13.45124 4009 ft 128 kts 88°
2026-05-07 20:49 50.96154 13.46503 4002 ft 124 kts 85°
2026-05-07 20:49 50.96195 13.47850 3934 ft 120 kts 87°
2026-05-07 20:49 50.96223 13.49113 3918 ft 108 kts 86°
2026-05-07 20:49 50.96253 13.50261 3949 ft 107 kts 85°
2026-05-07 20:50 50.96284 13.51462 3955 ft 112 kts 85°
2026-05-07 20:50 50.96449 13.52677 3958 ft 113 kts 59°
2026-05-07 20:50 50.96949 13.53604 4032 ft 108 kts 42°
2026-05-07 20:50 50.97514 13.54395 4094 ft 107 kts 36°
2026-05-07 20:51 50.98123 13.55101 4105 ft 110 kts 36°
2026-05-07 20:51 50.98705 13.55872 4174 ft 108 kts 44°
2026-05-07 20:51 50.99255 13.56698 4188 ft 110 kts 40°
2026-05-07 20:51 50.99837 13.57525 4178 ft 113 kts 41°
2026-05-07 20:52 51.00392 13.58360 4242 ft 111 kts 41°
2026-05-07 20:52 51.01010 13.59153 4184 ft 116 kts 34°
2026-05-07 20:52 51.01654 13.59957 4126 ft 119 kts 39°
2026-05-07 20:52 51.02269 13.60852 4115 ft 118 kts 39°
2026-05-07 20:53 51.02880 13.61690 4099 ft 119 kts 40°
2026-05-07 20:53 51.03523 13.62571 3932 ft 123 kts 41°
2026-05-07 20:53 51.04104 13.63464 3632 ft 110 kts 43°
2026-05-07 20:53 51.04621 13.64333 3297 ft 103 kts 45°
2026-05-07 20:54 51.05061 13.65090 2951 ft 88 kts 45°
2026-05-07 20:54 51.05489 13.65805 2696 ft 90 kts 41°
2026-05-07 20:54 51.05946 13.66491 2507 ft 91 kts 41°
2026-05-07 20:54 51.06388 13.67193 2347 ft 90 kts 43°
2026-05-07 20:55 51.06820 13.67897 2200 ft 88 kts 41°
2026-05-07 20:55 51.07280 13.68565 2019 ft 88 kts 40°
2026-05-07 20:55 51.07703 13.69237 1967 ft 83 kts 43°
2026-05-07 20:55 51.08105 13.69922 1854 ft 87 kts 45°
2026-05-07 20:56 51.08532 13.70601 1741 ft 88 kts 42°
2026-05-07 20:56 51.08991 13.71282 1563 ft 90 kts 41°
2026-05-07 20:56 51.09409 13.71953 1543 ft 80 kts 45°
2026-05-07 20:56 51.09845 13.72560 1424 ft 87 kts 38°
2026-05-07 20:57 51.10303 13.73188 1306 ft 87 kts 41°
2026-05-07 20:57 51.10740 13.73842 1222 ft 86 kts 42°
2026-05-07 20:57 51.11188 13.74480 1117 ft 87 kts 38°
2026-05-07 20:57 51.11749 13.74781 1054 ft 83 kts 13°
2026-05-07 20:58 51.12271 13.75211 898 ft 87 kts 43°
2026-05-07 20:58 51.12746 13.75851 772 ft 94 kts 39°
2026-05-07 20:58 51.13271 13.76572 766 ft 107 kts 40°
2026-05-07 20:58 51.13792 13.77301 1132 ft 96 kts 39°
2026-05-07 20:59 51.14311 13.78063 1423 ft 105 kts 44°
2026-05-07 20:59 51.14813 13.78933 1759 ft 110 kts 46°
2026-05-07 20:59 51.15321 13.79814 2132 ft 108 kts 46°
2026-05-07 20:59 51.15816 13.80680 2547 ft 101 kts 44°
2026-05-07 21:00 51.16312 13.81501 2861 ft 104 kts 46°
2026-05-07 21:00 51.16788 13.82385 3179 ft 107 kts 51°
2026-05-07 21:00 51.17256 13.83298 3510 ft 107 kts 40°
2026-05-07 21:00 51.17871 13.83978 3840 ft 106 kts 33°
2026-05-07 21:01 51.18491 13.84620 4164 ft 109 kts 38°
2026-05-07 21:01 51.19066 13.85447 4477 ft 109 kts 40°
2026-05-07 21:01 51.19764 13.85828 4850 ft 105 kts 354°
2026-05-07 21:01 51.20401 13.85300 5167 ft 106 kts 309°
2026-05-07 21:02 51.20618 13.84119 5230 ft 129 kts 271°
2026-05-07 21:02 51.20400 13.82634 5297 ft 140 kts 245°
2026-05-07 21:02 51.19825 13.81247 5138 ft 157 kts 232°
2026-05-07 21:02 51.19256 13.79718 5010 ft 164 kts 242°
2026-05-07 21:03 51.18679 13.78165 4948 ft 164 kts 238°
2026-05-07 21:03 51.18079 13.76638 4962 ft 161 kts 240°
2026-05-07 21:03 51.17491 13.75109 4891 ft 163 kts 239°
2026-05-07 21:03 51.16948 13.73496 4886 ft 159 kts 248°
2026-05-07 21:04 51.16521 13.71925 4984 ft 155 kts 245°
2026-05-07 21:04 51.16036 13.70387 4995 ft 156 kts 244°
2026-05-07 21:04 51.15543 13.68846 4991 ft 157 kts 244°
2026-05-07 21:04 51.15034 13.67304 4982 ft 158 kts 237°
2026-05-07 21:05 51.14303 13.66003 5001 ft 158 kts 225°
2026-05-07 21:05 51.13524 13.64791 4996 ft 159 kts 225°
2026-05-07 21:05 51.12728 13.63568 4993 ft 159 kts 225°
2026-05-07 21:05 51.11932 13.62346 4997 ft 159 kts 225°
2026-05-07 21:06 51.11137 13.61131 5003 ft 158 kts 225°
2026-05-07 21:06 51.10346 13.59920 4992 ft 157 kts 225°
2026-05-07 21:06 51.09555 13.58710 4992 ft 157 kts 225°
2026-05-07 21:06 51.08765 13.57503 4996 ft 157 kts 225°
2026-05-07 21:07 51.07976 13.56301 4993 ft 157 kts 225°
2026-05-07 21:07 51.07187 13.55098 4990 ft 157 kts 225°
2026-05-07 21:07 51.06395 13.53894 4988 ft 157 kts 225°
2026-05-07 21:07 51.05605 13.52689 4995 ft 157 kts 225°
2026-05-07 21:08 51.04813 13.51480 4985 ft 157 kts 225°
2026-05-07 21:08 51.04024 13.50276 4986 ft 157 kts 225°
2026-05-07 21:08 51.03245 13.49088 4984 ft 157 kts 225°
2026-05-07 21:08 51.02454 13.47883 4984 ft 158 kts 225°
2026-05-07 21:09 51.01659 13.46676 4985 ft 158 kts 225°
2026-05-07 21:09 51.00863 13.45469 4983 ft 158 kts 225°
2026-05-07 21:09 51.00069 13.44263 4983 ft 158 kts 225°
2026-05-07 21:09 50.99274 13.43056 4978 ft 158 kts 225°
2026-05-07 21:10 50.98415 13.41976 4968 ft 160 kts 203°
2026-05-07 21:10 50.97312 13.41908 4888 ft 166 kts 163°
2026-05-07 21:10 50.96413 13.42982 4669 ft 161 kts 123°
2026-05-07 21:10 50.96182 13.44634 4500 ft 152 kts 82°
2026-05-07 21:11 50.96381 13.46206 4373 ft 141 kts 75°
2026-05-07 21:11 50.96617 13.47723 4245 ft 143 kts 75°
2026-05-07 21:11 50.97102 13.50810 3990 ft 145 kts 75°
2026-05-07 21:12 50.97336 13.52322 3984 ft 138 kts 75°
2026-05-07 21:12 50.97560 13.53771 3989 ft 133 kts 75°
2026-05-07 21:12 50.97773 13.55153 3981 ft 124 kts 74°
2026-05-07 21:12 50.98216 13.56206 3979 ft 114 kts 32°
2026-05-07 21:13 50.98886 13.56804 3973 ft 107 kts 26°
2026-05-07 21:13 50.99532 13.57341 3978 ft 102 kts 30°
2026-05-07 21:13 50.99960 13.58209 3990 ft 100 kts 63°
2026-05-07 21:13 51.00358 13.59079 3983 ft 96 kts 40°
2026-05-07 21:14 51.00870 13.59823 3856 ft 107 kts 41°
2026-05-07 21:14 51.01378 13.60630 3680 ft 96 kts 43°
2026-05-07 21:14 51.01835 13.61362 3603 ft 94 kts 44°
2026-05-07 21:14 51.02378 13.61964 3439 ft 95 kts 30°
2026-05-07 21:15 51.02878 13.62618 3337 ft 93 kts 41°
2026-05-07 21:15 51.03397 13.63214 3200 ft 93 kts 33°
2026-05-07 21:15 51.03911 13.63801 3139 ft 89 kts 41°
2026-05-07 21:15 51.04392 13.64528 2934 ft 94 kts 37°
2026-05-07 21:16 51.04922 13.65121 2805 ft 92 kts 34°
2026-05-07 21:16 51.05417 13.65767 2680 ft 92 kts 39°
2026-05-07 21:16 51.05892 13.66458 2549 ft 93 kts 40°
2026-05-07 21:16 51.06357 13.67171 2403 ft 94 kts 40°
2026-05-07 21:17 51.06847 13.67842 2257 ft 93 kts 38°
2026-05-07 21:17 51.07339 13.68511 2082 ft 95 kts 38°
2026-05-07 21:17 51.07815 13.69176 2007 ft 89 kts 38°
2026-05-07 21:17 51.08274 13.69817 1932 ft 87 kts 38°
2026-05-07 21:18 51.08761 13.70405 1812 ft 89 kts 33°
2026-05-07 21:18 51.09248 13.71011 1682 ft 88 kts 37°
2026-05-07 21:18 51.09712 13.71658 1532 ft 88 kts 39°
2026-05-07 21:18 51.10153 13.72336 1395 ft 88 kts 42°
2026-05-07 21:19 51.10611 13.72960 1282 ft 88 kts 38°
2026-05-07 21:19 51.11084 13.73586 1151 ft 88 kts 42°
2026-05-07 21:19 51.11533 13.74215 1045 ft 88 kts 34°
2026-05-07 21:19 51.12012 13.74827 917 ft 90 kts 39°
2026-05-07 21:20 51.12475 13.75471 826 ft 87 kts 40°
2026-05-07 21:20 51.12888 13.76047 744 ft 63 kts 39°
2026-05-07 21:20 51.13129 13.76383 741 ft 32 kts 39°
2026-05-07 21:20 51.13280 13.76582 735 ft 29 kts 42°
2026-05-07 21:21 51.13343 13.76792 728 ft 17 kts 130°
2026-05-07 21:21 51.13276 13.76903 727 ft 9 kts 130°
2026-05-07 21:21 51.13244 13.76969 727 ft 5 kts 133°
2026-05-07 21:21 51.13215 13.77027 730 ft 14 kts 130°
2026-05-07 21:22 51.13161 13.77087 734 ft 6 kts 195°
2026-05-07 21:22 51.13139 13.77065 735 ft 5 kts 220°
2026-05-07 21:22 51.13084 13.76988 738 ft 11 kts 220°
2026-05-07 21:22 51.13026 13.76909 740 ft 9 kts 220°
2026-05-07 21:23 51.13016 13.76866 740 ft 7 kts 346°